Terminal Aerodrome Forecast
Issued by NWS

Home | Current Version | Previous Version | Graphics & Text | Print | Product List | Glossary On
Versions: 1 2 3 4 5 6 7 8 9 10 11 12 13 14 15 16 17 18 19 20 21 22 23 24 25 26 27
675
FTUS43 KGRB 222325
TAFATW
TAF
KATW 222325Z 2300/2324 21007KT P6SM OVC090
     FM230500 22008KT 6SM -SN SCT025 OVC040
      TEMPO 2307/2309 6SM -FZRA BR
     FM230900 22007KT P6SM BKN050
     FM231300 25008KT P6SM SCT250=

USA.gov is the U.S. government's official web portal to all federal, state and local government web resources and services.